sensor_id;sensor_type;location;lat;lon;timestamp;temperature;humidity
76759;DHT22;65701;45.588;5.186;2024-01-10T05:23:41;1.80;80.06
76759;DHT22;65701;45.588;5.186;2024-01-10T05:26:07;1.79;80.08
76759;DHT22;65701;45.588;5.186;2024-01-10T05:28:32;1.79;80.16
76759;DHT22;65701;45.588;5.186;2024-01-10T05:31:01;1.80;80.15
76759;DHT22;65701;45.588;5.186;2024-01-10T05:33:27;1.79;80.06
76759;DHT22;65701;45.588;5.186;2024-01-10T05:35:52;1.79;79.99
76759;DHT22;65701;45.588;5.186;2024-01-10T05:38:18;1.75;80.05
76759;DHT22;65701;45.588;5.186;2024-01-10T05:40:43;1.76;80.11
76759;DHT22;65701;45.588;5.186;2024-01-10T05:43:09;1.75;80.11
76759;DHT22;65701;45.588;5.186;2024-01-10T05:45:38;1.78;80.15
76759;DHT22;65701;45.588;5.186;2024-01-10T05:48:04;1.75;80.20
76759;DHT22;65701;45.588;5.186;2024-01-10T05:50:29;1.75;80.26
76759;DHT22;65701;45.588;5.186;2024-01-10T05:52:55;1.75;80.31
76759;DHT22;65701;45.588;5.186;2024-01-10T05:55:20;1.73;80.29
76759;DHT22;65701;45.588;5.186;2024-01-10T05:57:46;1.75;80.32
76759;DHT22;65701;45.588;5.186;2024-01-10T06:00:12;1.75;80.30
76759;DHT22;65701;45.588;5.186;2024-01-10T06:02:41;1.75;80.27
76759;DHT22;65701;45.588;5.186;2024-01-10T06:05:08;1.78;80.28
76759;DHT22;65701;45.588;5.186;2024-01-10T06:07:34;1.80;80.29
76759;DHT22;65701;45.588;5.186;2024-01-10T06:10:00;1.80;80.27
76759;DHT22;65701;45.588;5.186;2024-01-10T06:12:26;1.80;80.22
76759;DHT22;65701;45.588;5.186;2024-01-10T06:14:52;1.80;80.26
76759;DHT22;65701;45.588;5.186;2024-01-10T06:17:17;1.80;80.23
76759;DHT22;65701;45.588;5.186;2024-01-10T06:19:44;1.79;80.25
76759;DHT22;65701;45.588;5.186;2024-01-10T06:22:09;1.83;80.22
76759;DHT22;65701;45.588;5.186;2024-01-10T06:24:36;1.80;80.28
76759;DHT22;65701;45.588;5.186;2024-01-10T06:27:03;1.85;80.32
76759;DHT22;65701;45.588;5.186;2024-01-10T06:29:29;1.83;80.36
76759;DHT22;65701;45.588;5.186;2024-01-10T06:31:55;1.79;80.38
76759;DHT22;65701;45.588;5.186;2024-01-10T06:34:22;1.80;80.34
76759;DHT22;65701;45.588;5.186;2024-01-10T06:36:47;1.82;80.35
76759;DHT22;65701;45.588;5.186;2024-01-10T06:39:13;1.85;80.36
76759;DHT22;65701;45.588;5.186;2024-01-10T06:41:39;1.87;80.38
76759;DHT22;65701;45.588;5.186;2024-01-10T06:44:05;1.85;80.32
76759;DHT22;65701;45.588;5.186;2024-01-10T06:46:32;1.87;80.38
76759;DHT22;65701;45.588;5.186;2024-01-10T06:48:58;1.85;80.39
76759;DHT22;65701;45.588;5.186;2024-01-10T06:51:24;1.83;80.44
76759;DHT22;65701;45.588;5.186;2024-01-10T06:53:50;1.80;80.46
76759;DHT22;65701;45.588;5.186;2024-01-10T06:56:15;1.82;80.46
76759;DHT22;65701;45.588;5.186;2024-01-10T06:58:41;1.82;80.44
76759;DHT22;65701;45.588;5.186;2024-01-10T07:01:13;1.83;80.42
76759;DHT22;65701;45.588;5.186;2024-01-10T11:59:56;2.59;82.31
76759;DHT22;65701;45.588;5.186;2024-01-10T12:02:24;2.63;82.29
76759;DHT22;65701;45.588;5.186;2024-01-10T12:04:54;2.63;82.19
76759;DHT22;65701;45.588;5.186;2024-01-10T12:07:19;2.65;82.36
76759;DHT22;65701;45.588;5.186;2024-01-10T12:09:46;2.66;82.57
76759;DHT22;65701;45.588;5.186;2024-01-10T12:12:15;2.63;82.81
76759;DHT22;65701;45.588;5.186;2024-01-10T12:14:41;2.66;82.96
76759;DHT22;65701;45.588;5.186;2024-01-10T12:17:09;2.63;83.13
76759;DHT22;65701;45.588;5.186;2024-01-10T12:19:35;2.65;83.35
76759;DHT22;65701;45.588;5.186;2024-01-10T12:22:03;2.68;83.43
76759;DHT22;65701;45.588;5.186;2024-01-10T12:24:30;2.71;83.34
76759;DHT22;65701;45.588;5.186;2024-01-10T12:26:55;2.73;83.26
76759;DHT22;65701;45.588;5.186;2024-01-10T12:29:21;2.76;83.25
76759;DHT22;65701;45.588;5.186;2024-01-10T12:31:47;2.79;83.26
76759;DHT22;65701;45.588;5.186;2024-01-10T12:34:13;2.80;83.27
76759;DHT22;65701;45.588;5.186;2024-01-10T12:36:39;2.78;83.61
76759;DHT22;65701;45.588;5.186;2024-01-10T12:39:05;2.82;83.72
76759;DHT22;65701;45.588;5.186;2024-01-10T12:41:33;2.87;83.65
76759;DHT22;65701;45.588;5.186;2024-01-10T12:44:00;2.89;83.61
76759;DHT22;65701;45.588;5.186;2024-01-10T12:46:30;2.92;83.65
76759;DHT22;65701;45.588;5.186;2024-01-10T12:49:06;2.87;83.95
76759;DHT22;65701;45.588;5.186;2024-01-10T12:51:34;2.99;84.01
76759;DHT22;65701;45.588;5.186;2024-01-10T12:54:03;3.00;83.85
76759;DHT22;65701;45.588;5.186;2024-01-10T12:56:35;3.01;83.86
76759;DHT22;65701;45.588;5.186;2024-01-10T12:59:01;3.07;83.80
76759;DHT22;65701;45.588;5.186;2024-01-10T13:01:26;3.11;83.58
76759;DHT22;65701;45.588;5.186;2024-01-10T13:03:52;3.13;83.46
76759;DHT22;65701;45.588;5.186;2024-01-10T13:06:18;3.17;83.47
76759;DHT22;65701;45.588;5.186;2024-01-10T13:08:45;3.20;83.58
76759;DHT22;65701;45.588;5.186;2024-01-10T13:11:11;3.20;83.68
76759;DHT22;65701;45.588;5.186;2024-01-10T13:13:38;3.23;83.77
76759;DHT22;65701;45.588;5.186;2024-01-10T13:16:04;3.23;84.00
76759;DHT22;65701;45.588;5.186;2024-01-10T13:18:30;3.21;83.98
76759;DHT22;65701;45.588;5.186;2024-01-10T13:20:55;3.27;84.04
76759;DHT22;65701;45.588;5.186;2024-01-10T13:23:21;3.30;83.90
76759;DHT22;65701;45.588;5.186;2024-01-10T13:25:51;3.32;83.94
76759;DHT22;65701;45.588;5.186;2024-01-10T13:28:18;3.32;83.84
76759;DHT22;65701;45.588;5.186;2024-01-10T13:30:44;3.35;83.79
76759;DHT22;65701;45.588;5.186;2024-01-10T13:33:09;3.28;83.92
76759;DHT22;65701;45.588;5.186;2024-01-10T13:35:36;3.36;84.10
76759;DHT22;65701;45.588;5.186;2024-01-10T13:38:02;3.41;84.13
76759;DHT22;65701;45.588;5.186;2024-01-10T13:40:27;3.50;84.07
76759;DHT22;65701;45.588;5.186;2024-01-10T13:42:54;3.51;84.01
76759;DHT22;65701;45.588;5.186;2024-01-10T13:45:19;3.56;83.77
76759;DHT22;65701;45.588;5.186;2024-01-10T13:47:46;3.58;83.56
76759;DHT22;65701;45.588;5.186;2024-01-10T13:50:12;3.61;83.34
76759;DHT22;65701;45.588;5.186;2024-01-10T13:52:38;3.63;83.17
76759;DHT22;65701;45.588;5.186;2024-01-10T13:55:04;3.65;83.11
76759;DHT22;65701;45.588;5.186;2024-01-10T13:57:33;3.68;83.02
76759;DHT22;65701;45.588;5.186;2024-01-10T14:00:00;3.54;83.15
76759;DHT22;65701;45.588;5.186;2024-01-10T14:02:26;3.55;83.54
76759;DHT22;65701;45.588;5.186;2024-01-10T14:04:52;3.62;83.49
76759;DHT22;65701;45.588;5.186;2024-01-10T14:07:19;3.65;83.33
76759;DHT22;65701;45.588;5.186;2024-01-10T14:09:45;3.62;83.24
76759;DHT22;65701;45.588;5.186;2024-01-10T14:12:14;3.59;83.60
76759;DHT22;65701;45.588;5.186;2024-01-10T14:14:40;3.58;83.92
76759;DHT22;65701;45.588;5.186;2024-01-10T14:17:05;3.65;84.02
76759;DHT22;65701;45.588;5.186;2024-01-10T14:19:31;3.63;84.08
76759;DHT22;65701;45.588;5.186;2024-01-10T14:21:58;3.68;83.99
76759;DHT22;65701;45.588;5.186;2024-01-10T14:24:24;3.65;83.92
76759;DHT22;65701;45.588;5.186;2024-01-10T14:26:50;3.66;83.84
76759;DHT22;65701;45.588;5.186;2024-01-10T14:29:16;3.70;83.70
76759;DHT22;65701;45.588;5.186;2024-01-10T14:31:42;3.76;83.49
76759;DHT22;65701;45.588;5.186;2024-01-10T14:34:07;3.76;83.28
76759;DHT22;65701;45.588;5.186;2024-01-10T14:36:33;3.72;83.09
76759;DHT22;65701;45.588;5.186;2024-01-10T14:39:01;3.70;83.05
76759;DHT22;65701;45.588;5.186;2024-01-10T14:41:29;3.61;83.02
76759;DHT22;65701;45.588;5.186;2024-01-10T14:43:55;3.62;83.38
76759;DHT22;65701;45.588;5.186;2024-01-10T14:46:22;3.58;83.63
76759;DHT22;65701;45.588;5.186;2024-01-10T14:48:47;3.61;83.72
76759;DHT22;65701;45.588;5.186;2024-01-10T14:51:13;3.56;83.78
76759;DHT22;65701;45.588;5.186;2024-01-10T14:53:38;3.55;83.85
76759;DHT22;65701;45.588;5.186;2024-01-10T14:56:05;3.41;83.96
76759;DHT22;65701;45.588;5.186;2024-01-10T14:58:32;3.39;84.41
76759;DHT22;65701;45.588;5.186;2024-01-10T15:00:59;3.30;84.71
76759;DHT22;65701;45.588;5.186;2024-01-10T15:03:25;3.28;84.88
76759;DHT22;65701;45.588;5.186;2024-01-10T15:05:51;3.35;85.01
76759;DHT22;65701;45.588;5.186;2024-01-10T15:08:18;3.35;85.07
76759;DHT22;65701;45.588;5.186;2024-01-10T15:23:33;3.51;84.42
76759;DHT22;65701;45.588;5.186;2024-01-10T15:25:59;3.51;84.37
76759;DHT22;65701;45.588;5.186;2024-01-10T15:28:25;3.55;84.33
76759;DHT22;65701;45.588;5.186;2024-01-10T15:30:51;3.61;84.20
76759;DHT22;65701;45.588;5.186;2024-01-10T15:33:16;3.61;83.97
76759;DHT22;65701;45.588;5.186;2024-01-10T15:35:43;3.63;83.85
76759;DHT22;65701;45.588;5.186;2024-01-10T15:38:09;3.62;83.76
76759;DHT22;65701;45.588;5.186;2024-01-10T15:40:34;3.65;83.68
76759;DHT22;65701;45.588;5.186;2024-01-10T15:43:00;3.65;83.64
76759;DHT22;65701;45.588;5.186;2024-01-10T15:45:25;3.62;83.56
76759;DHT22;65701;45.588;5.186;2024-01-10T15:47:51;3.70;83.49
76759;DHT22;65701;45.588;5.186;2024-01-10T15:50:17;3.70;83.39
76759;DHT22;65701;45.588;5.186;2024-01-10T15:52:42;3.72;83.30
76759;DHT22;65701;45.588;5.186;2024-01-10T15:55:09;3.70;83.22
76759;DHT22;65701;45.588;5.186;2024-01-10T15:57:35;3.76;83.12
76759;DHT22;65701;45.588;5.186;2024-01-10T16:00:01;3.79;83.04
76759;DHT22;65701;45.588;5.186;2024-01-10T16:02:26;3.79;82.92
76759;DHT22;65701;45.588;5.186;2024-01-10T16:04:52;3.80;82.83
76759;DHT22;65701;45.588;5.186;2024-01-10T16:07:18;3.82;82.75
76759;DHT22;65701;45.588;5.186;2024-01-10T16:09:45;3.82;82.75
76759;DHT22;65701;45.588;5.186;2024-01-10T16:12:11;3.79;82.75
76759;DHT22;65701;45.588;5.186;2024-01-10T16:14:36;3.76;82.87
76759;DHT22;65701;45.588;5.186;2024-01-10T16:17:02;3.65;83.10
76759;DHT22;65701;45.588;5.186;2024-01-10T16:19:28;3.62;83.41
76759;DHT22;65701;45.588;5.186;2024-01-10T16:22:29;3.63;83.66
76759;DHT22;65701;45.588;5.186;2024-01-10T16:24:55;3.70;83.64
76759;DHT22;65701;45.588;5.186;2024-01-10T16:27:23;3.65;83.63
76759;DHT22;65701;45.588;5.186;2024-01-10T16:29:49;3.68;83.70
76759;DHT22;65701;45.588;5.186;2024-01-10T16:32:15;3.66;83.56
76759;DHT22;65701;45.588;5.186;2024-01-10T16:34:43;3.63;83.41
76759;DHT22;65701;45.588;5.186;2024-01-10T16:37:10;3.58;83.48
76759;DHT22;65701;45.588;5.186;2024-01-10T16:39:37;3.52;83.67
76759;DHT22;65701;45.588;5.186;2024-01-10T16:42:06;3.52;83.90
76759;DHT22;65701;45.588;5.186;2024-01-10T16:44:32;3.48;84.03
76759;DHT22;65701;45.588;5.186;2024-01-10T16:46:57;3.48;84.17
76759;DHT22;65701;45.588;5.186;2024-01-10T16:49:23;3.54;84.15
76759;DHT22;65701;45.588;5.186;2024-01-10T16:51:48;3.52;83.91
76759;DHT22;65701;45.588;5.186;2024-01-10T16:54:14;3.56;83.70
76759;DHT22;65701;45.588;5.186;2024-01-10T16:56:40;3.52;83.57
76759;DHT22;65701;45.588;5.186;2024-01-10T16:59:05;3.54;83.63
76759;DHT22;65701;45.588;5.186;2024-01-10T17:01:31;3.50;83.91
76759;DHT22;65701;45.588;5.186;2024-01-10T17:03:57;3.48;84.26
76759;DHT22;65701;45.588;5.186;2024-01-10T17:06:23;3.42;84.58
76759;DHT22;65701;45.588;5.186;2024-01-10T17:08:49;3.48;84.72
76759;DHT22;65701;45.588;5.186;2024-01-10T17:11:15;3.52;84.59
76759;DHT22;65701;45.588;5.186;2024-01-10T17:13:41;3.55;84.33
76759;DHT22;65701;45.588;5.186;2024-01-10T17:16:07;3.59;84.08
76759;DHT22;65701;45.588;5.186;2024-01-10T17:18:32;3.59;83.87
76759;DHT22;65701;45.588;5.186;2024-01-10T17:20:58;3.62;83.76
76759;DHT22;65701;45.588;5.186;2024-01-10T17:23:24;3.62;83.62
76759;DHT22;65701;45.588;5.186;2024-01-10T17:25:49;3.65;83.53
76759;DHT22;65701;45.588;5.186;2024-01-10T17:28:15;3.63;83.40
76759;DHT22;65701;45.588;5.186;2024-01-10T17:30:40;3.65;83.37
76759;DHT22;65701;45.588;5.186;2024-01-10T17:33:06;3.68;83.27
76759;DHT22;65701;45.588;5.186;2024-01-10T17:35:35;3.69;83.28
76759;DHT22;65701;45.588;5.186;2024-01-10T17:38:00;3.68;83.25
76759;DHT22;65701;45.588;5.186;2024-01-10T17:40:26;3.68;83.20
76759;DHT22;65701;45.588;5.186;2024-01-10T17:42:52;3.65;83.17
76759;DHT22;65701;45.588;5.186;2024-01-10T17:45:17;3.65;83.12
76759;DHT22;65701;45.588;5.186;2024-01-10T17:47:43;3.65;83.06
76759;DHT22;65701;45.588;5.186;2024-01-10T17:50:09;3.62;83.06
76759;DHT22;65701;45.588;5.186;2024-01-10T17:52:35;3.61;83.03
76759;DHT22;65701;45.588;5.186;2024-01-10T17:55:00;3.58;82.97
76759;DHT22;65701;45.588;5.186;2024-01-10T17:57:26;3.55;83.00
76759;DHT22;65701;45.588;5.186;2024-01-10T17:59:55;3.51;82.97
76759;DHT22;65701;45.588;5.186;2024-01-10T18:02:21;3.51;82.99
76759;DHT22;65701;45.588;5.186;2024-01-10T18:04:47;3.48;83.02
76759;DHT22;65701;45.588;5.186;2024-01-10T18:07:13;3.46;83.05
76759;DHT22;65701;45.588;5.186;2024-01-10T18:10:29;3.45;83.12
76759;DHT22;65701;45.588;5.186;2024-01-10T18:12:55;3.42;83.06
76759;DHT22;65701;45.588;5.186;2024-01-10T18:15:22;3.42;83.13
76759;DHT22;65701;45.588;5.186;2024-01-10T18:17:48;3.42;83.10
76759;DHT22;65701;45.588;5.186;2024-01-10T18:20:13;3.46;83.16
76759;DHT22;65701;45.588;5.186;2024-01-10T18:22:40;3.50;83.05
76759;DHT22;65701;45.588;5.186;2024-01-10T18:25:06;3.51;82.99
76759;DHT22;65701;45.588;5.186;2024-01-10T18:27:32;3.50;82.89
76759;DHT22;65701;45.588;5.186;2024-01-10T18:29:57;3.51;82.90
76759;DHT22;65701;45.588;5.186;2024-01-10T18:32:23;3.51;82.90
76759;DHT22;65701;45.588;5.186;2024-01-10T18:34:48;3.51;82.89
76759;DHT22;65701;45.588;5.186;2024-01-10T18:37:14;3.51;82.90
76759;DHT22;65701;45.588;5.186;2024-01-10T18:39:39;3.52;82.85
76759;DHT22;65701;45.588;5.186;2024-01-10T18:42:05;3.51;82.91
76759;DHT22;65701;45.588;5.186;2024-01-10T18:44:30;3.46;82.92
76759;DHT22;65701;45.588;5.186;2024-01-10T18:46:57;3.46;83.00
76759;DHT22;65701;45.588;5.186;2024-01-10T18:49:29;3.48;82.99
76759;DHT22;65701;45.588;5.186;2024-01-10T18:51:56;3.45;82.99
76759;DHT22;65701;45.588;5.186;2024-01-10T18:54:23;3.45;82.98
76759;DHT22;65701;45.588;5.186;2024-01-10T18:56:51;3.44;83.00
76759;DHT22;65701;45.588;5.186;2024-01-10T18:59:18;3.42;83.02
76759;DHT22;65701;45.588;5.186;2024-01-10T19:01:45;3.42;83.12
76759;DHT22;65701;45.588;5.186;2024-01-10T19:04:13;3.42;83.08
76759;DHT22;65701;45.588;5.186;2024-01-10T19:06:41;3.39;82.97
76759;DHT22;65701;45.588;5.186;2024-01-10T19:09:08;3.42;83.02
76759;DHT22;65701;45.588;5.186;2024-01-10T19:11:34;3.39;83.01
76759;DHT22;65701;45.588;5.186;2024-01-10T19:14:00;3.41;83.02
76759;DHT22;65701;45.588;5.186;2024-01-10T19:16:25;3.44;83.01
76759;DHT22;65701;45.588;5.186;2024-01-10T19:18:51;3.42;83.03
76759;DHT22;65701;45.588;5.186;2024-01-10T19:21:16;3.42;83.01
76759;DHT22;65701;45.588;5.186;2024-01-10T19:23:51;3.44;82.96
76759;DHT22;65701;45.588;5.186;2024-01-10T19:26:55;3.39;82.92
76759;DHT22;65701;45.588;5.186;2024-01-10T19:29:23;3.39;82.90
76759;DHT22;65701;45.588;5.186;2024-01-10T19:35:23;3.36;82.94
76759;DHT22;65701;45.588;5.186;2024-01-10T19:41:24;3.35;82.97
76759;DHT22;65701;45.588;5.186;2024-01-10T19:43:51;3.31;83.01
76759;DHT22;65701;45.588;5.186;2024-01-10T19:46:17;3.31;83.07
76759;DHT22;65701;45.588;5.186;2024-01-10T19:48:44;3.30;83.05
76759;DHT22;65701;45.588;5.186;2024-01-10T19:51:09;3.32;83.11
76759;DHT22;65701;45.588;5.186;2024-01-10T19:53:35;3.32;83.06
76759;DHT22;65701;45.588;5.186;2024-01-10T19:56:01;3.32;83.03
76759;DHT22;65701;45.588;5.186;2024-01-10T19:58:26;3.31;83.03
76759;DHT22;65701;45.588;5.186;2024-01-10T20:00:52;3.27;83.12
76759;DHT22;65701;45.588;5.186;2024-01-10T20:03:17;3.23;83.15
76759;DHT22;65701;45.588;5.186;2024-01-10T20:05:43;3.23;83.18
76759;DHT22;65701;45.588;5.186;2024-01-10T20:08:09;3.21;83.20
76759;DHT22;65701;45.588;5.186;2024-01-10T20:10:35;3.20;83.11
76759;DHT22;65701;45.588;5.186;2024-01-10T20:13:04;3.23;83.11
76759;DHT22;65701;45.588;5.186;2024-01-10T20:15:30;3.23;83.13
76759;DHT22;65701;45.588;5.186;2024-01-10T20:17:56;3.18;83.19
76759;DHT22;65701;45.588;5.186;2024-01-10T20:20:22;3.21;83.23
76759;DHT22;65701;45.588;5.186;2024-01-10T20:22:47;3.20;83.23
76759;DHT22;65701;45.588;5.186;2024-01-10T20:25:13;3.18;83.18
76759;DHT22;65701;45.588;5.186;2024-01-10T20:27:39;3.20;83.06
76759;DHT22;65701;45.588;5.186;2024-01-10T20:30:06;3.21;83.07
76759;DHT22;65701;45.588;5.186;2024-01-10T20:32:31;3.23;83.10
76759;DHT22;65701;45.588;5.186;2024-01-10T20:34:57;3.21;83.09
76759;DHT22;65701;45.588;5.186;2024-01-10T20:37:22;3.21;83.04
76759;DHT22;65701;45.588;5.186;2024-01-10T20:39:48;3.17;82.98
76759;DHT22;65701;45.588;5.186;2024-01-10T20:42:14;3.15;83.00
76759;DHT22;65701;45.588;5.186;2024-01-10T20:44:39;3.14;83.06
76759;DHT22;65701;45.588;5.186;2024-01-10T20:47:08;3.14;83.02
76759;DHT22;65701;45.588;5.186;2024-01-10T20:49:34;3.15;83.01
76759;DHT22;65701;45.588;5.186;2024-01-10T20:51:59;3.14;83.06
76759;DHT22;65701;45.588;5.186;2024-01-10T20:54:25;3.14;83.05
76759;DHT22;65701;45.588;5.186;2024-01-10T20:56:50;3.11;83.10
76759;DHT22;65701;45.588;5.186;2024-01-10T20:59:15;3.13;83.08
